createdAt,value
2022-08-25T00:00:44.389Z,20.48
2022-08-25T00:01:50.465Z,20.49
2022-08-25T00:02:56.659Z,20.49
2022-08-25T00:04:01.804Z,20.49
2022-08-25T00:05:04.672Z,20.50
2022-08-25T00:06:07.311Z,20.50
2022-08-25T00:07:08.929Z,20.50
2022-08-25T00:08:10.528Z,20.50
2022-08-25T00:09:15.189Z,20.52
2022-08-25T00:10:16.807Z,20.51
2022-08-25T00:11:23.856Z,20.50
2022-08-25T00:12:25.516Z,20.52
2022-08-25T00:13:28.667Z,20.47
2022-08-25T00:14:35.617Z,20.45
2022-08-25T00:15:38.537Z,20.45
2022-08-25T00:16:40.499Z,20.44
2022-08-25T00:17:42.112Z,20.44
2022-08-25T00:18:45.940Z,20.46
2022-08-25T00:19:47.597Z,20.45
2022-08-25T00:20:49.792Z,20.47
2022-08-25T00:21:52.035Z,20.47
2022-08-25T00:22:54.365Z,20.45
2022-08-25T00:23:55.951Z,20.44
2022-08-25T00:24:57.576Z,20.44
2022-08-25T00:25:59.421Z,20.44
2022-08-25T00:27:01.029Z,20.43
2022-08-25T00:28:07.821Z,20.38
2022-08-25T00:29:11.073Z,20.25
2022-08-25T00:30:13.183Z,20.24
2022-08-25T00:31:19.734Z,20.27
2022-08-25T00:32:21.429Z,20.27
2022-08-25T00:33:23.075Z,20.27
2022-08-25T00:34:32.090Z,20.27
2022-08-25T00:35:33.675Z,20.25
2022-08-25T00:36:35.338Z,20.26
2022-08-25T00:37:36.970Z,20.26
2022-08-25T00:38:43.372Z,20.27
2022-08-25T00:39:45.786Z,20.29
2022-08-25T00:40:48.827Z,20.24
2022-08-25T00:41:52.597Z,20.19
2022-08-25T00:42:54.662Z,20.16
2022-08-25T00:43:59.189Z,20.16
2022-08-25T00:45:00.785Z,20.17
2022-08-25T00:46:02.404Z,20.19
2022-08-25T00:47:05.573Z,20.19
2022-08-25T00:48:07.316Z,20.24
2022-08-25T00:49:24.711Z,20.22
2022-08-25T00:50:28.936Z,20.24
2022-08-25T00:51:38.298Z,20.25
2022-08-25T00:52:45.142Z,20.27
2022-08-25T00:53:47.918Z,20.25
2022-08-25T00:55:07.937Z,20.25
2022-08-25T00:56:12.954Z,20.24
2022-08-25T00:57:18.212Z,20.22
2022-08-25T00:58:26.628Z,20.22
2022-08-25T00:59:29.005Z,20.21
2022-08-25T01:00:37.655Z,20.20
2022-08-25T01:01:39.480Z,20.21
2022-08-25T01:02:41.572Z,20.21
2022-08-25T01:03:43.202Z,20.20
2022-08-25T01:04:49.087Z,20.19
2022-08-25T01:05:52.332Z,20.15
2022-08-25T01:06:54.600Z,20.12
2022-08-25T01:08:02.423Z,20.06
2022-08-25T01:09:04.925Z,20.01
2022-08-25T01:10:07.859Z,19.97
2022-08-25T01:11:11.490Z,19.95
2022-08-25T01:12:13.434Z,19.94
2022-08-25T01:13:26.387Z,19.93
2022-08-25T01:14:30.871Z,19.95
2022-08-25T01:15:34.304Z,19.91
2022-08-25T01:16:40.587Z,19.88
2022-08-25T01:17:57.765Z,19.90
2022-08-25T01:19:01.858Z,19.88
2022-08-25T01:20:04.378Z,19.90
2022-08-25T01:21:06.115Z,19.87
2022-08-25T01:22:08.110Z,19.87
2022-08-25T01:23:09.737Z,19.82
2022-08-25T01:24:20.744Z,19.84
2022-08-25T01:25:27.566Z,19.75
2022-08-25T01:26:32.193Z,19.77
2022-08-25T01:27:33.834Z,19.64
2022-08-25T01:28:36.200Z,19.56
2022-08-25T01:29:38.844Z,19.56
2022-08-25T01:30:41.544Z,19.55
2022-08-25T01:31:43.260Z,19.45
2022-08-25T01:32:45.382Z,19.50
2022-08-25T01:33:46.980Z,19.57
2022-08-25T01:34:48.608Z,19.59
2022-08-25T01:35:54.200Z,19.58
2022-08-25T01:36:57.447Z,19.57
2022-08-25T01:38:00.885Z,19.50
2022-08-25T01:39:04.680Z,19.51
2022-08-25T01:40:07.141Z,19.55
2022-08-25T01:41:08.749Z,19.59
2022-08-25T01:42:23.754Z,19.64
2022-08-25T01:43:45.601Z,19.66
2022-08-25T01:44:48.223Z,19.70
2022-08-25T01:45:49.856Z,19.73
2022-08-25T01:46:53.004Z,19.71
2022-08-25T01:47:54.597Z,19.74
2022-08-25T01:48:56.204Z,19.77
2022-08-25T01:49:57.826Z,19.76
2022-08-25T01:50:59.614Z,19.77
2022-08-25T01:52:23.566Z,19.83
2022-08-25T01:53:27.804Z,19.83
2022-08-25T01:54:29.421Z,19.81
2022-08-25T01:55:31.494Z,19.80
2022-08-25T01:56:33.407Z,19.78
2022-08-25T01:57:35.139Z,19.76
2022-08-25T01:58:38.817Z,19.77
2022-08-25T01:59:40.478Z,19.77
2022-08-25T02:00:46.523Z,19.77
2022-08-25T02:01:48.214Z,19.71
2022-08-25T02:02:52.230Z,19.71
2022-08-25T02:03:56.560Z,19.70
2022-08-25T02:04:59.069Z,19.70
2022-08-25T02:06:01.669Z,19.66
2022-08-25T02:07:08.068Z,19.68
2022-08-25T02:08:09.897Z,19.62
2022-08-25T02:09:15.267Z,19.60
2022-08-25T02:10:16.866Z,19.52
2022-08-25T02:11:18.552Z,19.51
2022-08-25T02:12:20.176Z,19.50
2022-08-25T02:13:26.679Z,19.52
2022-08-25T02:14:33.083Z,19.57
2022-08-25T02:15:34.779Z,19.58
2022-08-25T02:16:39.140Z,19.60
2022-08-25T02:17:40.756Z,19.53
2022-08-25T02:18:42.483Z,19.51
2022-08-25T02:19:44.095Z,19.54
2022-08-25T02:20:46.376Z,19.54
2022-08-25T02:21:48.419Z,19.54
2022-08-25T02:22:57.092Z,19.54
2022-08-25T02:23:59.161Z,19.49
2022-08-25T02:25:02.254Z,19.49
2022-08-25T02:26:05.158Z,19.47
2022-08-25T02:27:06.789Z,19.50
2022-08-25T02:28:09.620Z,19.46
2022-08-25T02:29:11.282Z,19.35
2022-08-25T02:30:15.326Z,19.30
2022-08-25T02:31:18.907Z,19.32
2022-08-25T02:32:20.521Z,19.35
2022-08-25T02:33:22.091Z,19.33
2022-08-25T02:34:23.711Z,19.28
2022-08-25T02:35:25.283Z,19.29
2022-08-25T02:36:26.881Z,19.34
2022-08-25T02:37:28.493Z,19.37
2022-08-25T02:38:30.748Z,19.37
2022-08-25T02:39:32.382Z,19.33
2022-08-25T02:40:34.600Z,19.36
2022-08-25T02:41:36.633Z,19.33
2022-08-25T02:42:38.289Z,19.37
2022-08-25T02:43:45.256Z,19.43
2022-08-25T02:44:46.861Z,19.42
2022-08-25T02:45:48.508Z,19.41
2022-08-25T02:46:50.174Z,19.43
2022-08-25T02:47:51.752Z,19.35
2022-08-25T02:48:53.591Z,19.34
2022-08-25T02:49:55.246Z,19.33
2022-08-25T02:51:00.269Z,19.36
2022-08-25T02:52:01.969Z,19.39
2022-08-25T02:53:05.369Z,19.40
2022-08-25T02:54:06.968Z,19.35
2022-08-25T02:55:10.895Z,19.37
2022-08-25T02:56:14.268Z,19.38
2022-08-25T02:57:15.893Z,19.41
2022-08-25T02:58:17.488Z,19.40
2022-08-25T02:59:19.099Z,19.43
2022-08-25T03:00:21.313Z,19.43
2022-08-25T03:01:28.810Z,19.43
2022-08-25T03:02:30.716Z,19.37
2022-08-25T03:03:35.200Z,19.38
2022-08-25T03:04:39.215Z,19.38
2022-08-25T03:05:41.348Z,19.41
2022-08-25T03:06:43.003Z,19.43
2022-08-25T03:07:44.619Z,19.42
2022-08-25T03:08:46.267Z,19.40
2022-08-25T03:09:48.838Z,19.42
2022-08-25T03:10:52.031Z,19.42
2022-08-25T03:11:53.683Z,19.44
2022-08-25T03:12:55.279Z,19.46
2022-08-25T03:13:57.265Z,19.47
2022-08-25T03:14:58.848Z,19.48
2022-08-25T03:16:01.614Z,19.47
2022-08-25T03:17:08.628Z,19.49
2022-08-25T03:18:10.446Z,19.49
2022-08-25T03:19:12.042Z,19.47
2022-08-25T03:20:13.722Z,19.49
2022-08-25T03:21:16.513Z,19.46
2022-08-25T03:22:19.171Z,19.47
2022-08-25T03:23:20.913Z,19.45
2022-08-25T03:24:23.664Z,19.48
2022-08-25T03:25:25.253Z,19.47
2022-08-25T03:26:27.021Z,19.45
2022-08-25T03:27:29.451Z,19.37
2022-08-25T03:28:31.239Z,19.30
2022-08-25T03:29:34.272Z,19.22
2022-08-25T03:30:35.880Z,19.17
2022-08-25T03:31:38.408Z,19.20
2022-08-25T03:32:40.115Z,19.23
2022-08-25T03:33:42.259Z,19.29
2022-08-25T03:34:43.820Z,19.31
2022-08-25T03:35:45.783Z,19.32
2022-08-25T03:36:49.947Z,19.35
2022-08-25T03:37:55.966Z,19.33
2022-08-25T03:38:57.623Z,19.37
2022-08-25T03:40:04.794Z,19.33
2022-08-25T03:41:18.111Z,19.26
2022-08-25T03:42:19.748Z,19.20
2022-08-25T03:43:21.641Z,19.14
2022-08-25T03:44:23.305Z,19.15
2022-08-25T03:45:25.619Z,19.15
2022-08-25T03:46:31.380Z,19.17
2022-08-25T03:47:33.041Z,19.19
2022-08-25T03:48:34.649Z,19.17
2022-08-25T03:49:36.295Z,19.17
2022-08-25T03:50:43.329Z,19.19
2022-08-25T03:51:54.189Z,19.16
2022-08-25T03:52:56.915Z,19.14
2022-08-25T03:53:59.451Z,19.17
2022-08-25T03:55:03.492Z,19.20
2022-08-25T03:56:05.215Z,19.21
2022-08-25T03:57:06.817Z,19.24
2022-08-25T03:58:08.504Z,19.23
2022-08-25T03:59:10.101Z,19.14
2022-08-25T04:00:12.090Z,19.09
2022-08-25T04:01:14.394Z,19.06
2022-08-25T04:02:17.075Z,19.07
2022-08-25T04:03:18.808Z,19.13
2022-08-25T04:04:20.535Z,19.12
2022-08-25T04:05:22.122Z,19.17
2022-08-25T04:06:23.768Z,19.18
2022-08-25T04:07:25.397Z,19.21
2022-08-25T04:08:26.977Z,19.22
2022-08-25T04:09:28.590Z,19.23
2022-08-25T04:10:32.464Z,19.24
2022-08-25T04:11:34.104Z,19.29
2022-08-25T04:12:36.606Z,19.27
2022-08-25T04:13:38.198Z,19.23
2022-08-25T04:14:39.780Z,19.26
2022-08-25T04:15:43.404Z,19.27
2022-08-25T04:16:45.642Z,19.29
2022-08-25T04:17:47.281Z,19.33
2022-08-25T04:18:53.722Z,19.32
2022-08-25T04:19:55.354Z,19.31
2022-08-25T04:21:07.588Z,19.32
2022-08-25T04:22:09.370Z,19.33
2022-08-25T04:23:11.019Z,19.35
2022-08-25T04:24:13.808Z,19.37
2022-08-25T04:25:15.425Z,19.38
2022-08-25T04:26:20.583Z,19.41
2022-08-25T04:27:22.163Z,19.41
2022-08-25T04:28:23.766Z,19.43
2022-08-25T04:29:26.477Z,19.42
2022-08-25T04:30:28.068Z,19.43
2022-08-25T04:31:31.171Z,19.44
2022-08-25T04:32:32.915Z,19.45
2022-08-25T04:33:36.112Z,19.45
2022-08-25T04:34:37.713Z,19.46
2022-08-25T04:35:39.289Z,19.49
2022-08-25T04:36:42.554Z,19.47
2022-08-25T04:37:44.206Z,19.48
2022-08-25T04:38:47.439Z,19.49
2022-08-25T04:39:49.173Z,19.45
2022-08-25T04:40:58.738Z,19.46
2022-08-25T04:42:00.936Z,19.47
2022-08-25T04:43:02.716Z,19.50
2022-08-25T04:44:04.335Z,19.52
2022-08-25T04:45:06.554Z,19.56
2022-08-25T04:46:14.568Z,19.54
2022-08-25T04:47:22.073Z,19.59
2022-08-25T04:48:24.341Z,19.63
2022-08-25T04:49:25.993Z,19.67
2022-08-25T04:50:27.592Z,19.67
2022-08-25T04:51:33.982Z,19.65
2022-08-25T04:52:35.587Z,19.69
2022-08-25T04:53:38.039Z,19.71
2022-08-25T04:54:39.700Z,19.74
2022-08-25T04:55:43.169Z,19.78
2022-08-25T04:56:45.200Z,19.84
2022-08-25T04:57:46.803Z,19.86
2022-08-25T04:58:48.427Z,19.82
2022-08-25T04:59:50.165Z,19.77
2022-08-25T05:00:51.856Z,19.75
2022-08-25T05:01:53.488Z,19.76
2022-08-25T05:02:55.060Z,19.78
2022-08-25T05:03:59.438Z,19.82
2022-08-25T05:05:01.072Z,19.85
2022-08-25T05:06:03.545Z,19.85
2022-08-25T05:07:05.562Z,19.87
2022-08-25T05:08:07.348Z,19.89
2022-08-25T05:09:09.091Z,19.95
2022-08-25T05:10:11.635Z,20.02
2022-08-25T05:11:14.974Z,20.11
2022-08-25T05:12:17.478Z,20.14
2022-08-25T05:13:19.078Z,20.18
2022-08-25T05:14:21.752Z,20.21
2022-08-25T05:15:27.384Z,20.25
2022-08-25T05:16:29.747Z,20.31
2022-08-25T05:17:31.372Z,20.41
2022-08-25T05:18:34.588Z,20.48
2022-08-25T05:19:36.210Z,20.57
2022-08-25T05:20:37.942Z,20.68
2022-08-25T05:21:40.017Z,20.76
2022-08-25T05:22:44.797Z,20.85
2022-08-25T05:23:46.498Z,20.96
2022-08-25T05:24:48.074Z,21.01
2022-08-25T05:25:51.115Z,21.11
2022-08-25T05:26:53.668Z,21.20
2022-08-25T05:27:55.252Z,21.26
2022-08-25T05:28:57.940Z,21.35
2022-08-25T05:29:59.521Z,21.46
2022-08-25T05:31:02.949Z,21.55
2022-08-25T05:32:04.702Z,21.59
2022-08-25T05:33:06.899Z,21.70
2022-08-25T05:34:08.766Z,21.82
2022-08-25T05:35:10.358Z,21.90
2022-08-25T05:36:13.537Z,21.95
2022-08-25T05:37:15.136Z,22.06
2022-08-25T05:38:16.820Z,22.20
2022-08-25T05:39:18.459Z,22.30
2022-08-25T05:40:20.169Z,22.41
2022-08-25T05:41:27.324Z,22.54
2022-08-25T05:42:28.937Z,22.61
2022-08-25T05:43:31.561Z,22.70
2022-08-25T05:44:33.165Z,22.60
2022-08-25T05:45:34.910Z,22.67
2022-08-25T05:46:36.698Z,22.70
2022-08-25T05:47:38.404Z,22.67
2022-08-25T05:48:40.213Z,22.64
2022-08-25T05:49:41.820Z,22.57
2022-08-25T05:50:51.679Z,22.43
2022-08-25T05:51:53.287Z,22.27
2022-08-25T05:52:54.916Z,22.20
2022-08-25T05:53:56.556Z,22.09
2022-08-25T05:54:58.277Z,21.94
2022-08-25T05:56:00.666Z,21.81
2022-08-25T05:57:02.273Z,21.73
2022-08-25T05:58:03.917Z,21.71
2022-08-25T05:59:09.311Z,21.65
2022-08-25T06:00:12.058Z,21.58
2022-08-25T06:01:26.051Z,21.52
2022-08-25T06:02:27.754Z,21.46
2022-08-25T06:03:29.818Z,21.36
2022-08-25T06:04:31.473Z,21.30
2022-08-25T06:05:33.311Z,21.26
2022-08-25T06:06:34.916Z,21.18
2022-08-25T06:07:36.713Z,21.11
2022-08-25T06:08:38.366Z,21.03
2022-08-25T06:09:42.290Z,20.91
2022-08-25T06:10:44.060Z,20.85
2022-08-25T06:11:51.643Z,20.79
2022-08-25T06:12:56.731Z,20.73
2022-08-25T06:13:59.704Z,20.69
2022-08-25T06:15:01.409Z,20.65
2022-08-25T06:16:03.251Z,20.64
2022-08-25T06:17:05.087Z,20.65
2022-08-25T06:18:06.746Z,20.66
2022-08-25T06:19:10.009Z,20.70
2022-08-25T06:20:25.516Z,20.71
2022-08-25T06:21:27.636Z,20.72
2022-08-25T06:22:29.225Z,20.69
2022-08-25T06:23:30.826Z,20.78
2022-08-25T06:24:32.709Z,20.89
2022-08-25T06:25:34.358Z,21.02
2022-08-25T06:26:36.721Z,21.17
2022-08-25T06:27:38.746Z,21.30
2022-08-25T06:28:40.894Z,21.38
2022-08-25T06:29:42.597Z,21.44
2022-08-25T06:30:44.206Z,21.61
2022-08-25T06:31:46.182Z,21.74
2022-08-25T06:32:48.403Z,21.89
2022-08-25T06:33:50.258Z,22.01
2022-08-25T06:34:51.877Z,22.09
2022-08-25T06:35:55.198Z,22.12
2022-08-25T06:36:56.801Z,22.16
2022-08-25T06:37:58.438Z,22.28
2022-08-25T06:39:01.543Z,22.40
2022-08-25T06:40:04.858Z,22.48
2022-08-25T06:41:08.817Z,22.53
2022-08-25T06:42:10.504Z,22.63
2022-08-25T06:43:12.111Z,22.69
2022-08-25T06:44:13.722Z,22.77
2022-08-25T06:45:15.467Z,22.84
2022-08-25T06:46:35.695Z,22.87
2022-08-25T06:47:38.272Z,23.00
2022-08-25T06:48:40.676Z,23.13
2022-08-25T06:49:43.152Z,23.17
2022-08-25T06:50:44.851Z,23.14
2022-08-25T06:51:46.609Z,23.16
2022-08-25T06:52:48.187Z,23.16
2022-08-25T06:53:50.884Z,23.25
2022-08-25T06:54:52.618Z,23.31
2022-08-25T06:55:58.249Z,23.37
2022-08-25T06:56:59.834Z,23.50
2022-08-25T06:58:02.222Z,23.64
2022-08-25T06:59:08.322Z,23.74
2022-08-25T07:00:12.338Z,23.82
2022-08-25T07:01:25.928Z,23.94
2022-08-25T07:02:27.918Z,23.89
2022-08-25T07:03:30.911Z,23.95
2022-08-25T07:04:34.248Z,23.98
2022-08-25T07:05:43.414Z,24.05
2022-08-25T07:06:45.673Z,24.09
2022-08-25T07:07:47.268Z,24.13
2022-08-25T07:08:49.041Z,24.18
2022-08-25T07:09:50.629Z,24.18
2022-08-25T07:10:52.328Z,24.20
2022-08-25T07:11:53.938Z,24.22
2022-08-25T07:12:55.527Z,24.30
2022-08-25T07:13:57.109Z,24.35
2022-08-25T07:15:18.958Z,24.37
2022-08-25T07:16:21.481Z,24.33
2022-08-25T07:17:23.228Z,24.29
2022-08-25T07:18:26.700Z,24.35
2022-08-25T07:19:28.619Z,24.35
2022-08-25T07:20:30.344Z,24.40
2022-08-25T07:21:35.689Z,24.42
2022-08-25T07:22:37.580Z,24.45
2022-08-25T07:23:40.962Z,24.45
2022-08-25T07:24:42.701Z,24.51
2022-08-25T07:25:44.371Z,24.52
2022-08-25T07:26:46.118Z,24.43
2022-08-25T07:27:48.054Z,24.34
2022-08-25T07:28:49.905Z,24.26
2022-08-25T07:29:51.939Z,24.25
2022-08-25T07:30:53.562Z,24.29
2022-08-25T07:31:56.171Z,24.37
2022-08-25T07:32:57.825Z,24.47
2022-08-25T07:33:59.431Z,24.60
2022-08-25T07:35:01.307Z,24.68
2022-08-25T07:36:04.663Z,24.79
2022-08-25T07:37:06.862Z,24.90
2022-08-25T07:38:10.214Z,24.92
2022-08-25T07:39:14.270Z,24.84
2022-08-25T07:40:22.495Z,24.81
2022-08-25T07:41:25.577Z,24.89
2022-08-25T07:42:27.179Z,24.99
2022-08-25T07:43:29.056Z,25.10
2022-08-25T07:44:30.747Z,25.09
2022-08-25T07:45:34.559Z,25.05
2022-08-25T07:46:36.366Z,25.04
2022-08-25T07:47:39.316Z,25.05
2022-08-25T07:48:41.166Z,25.06
2022-08-25T07:49:42.783Z,25.08
2022-08-25T07:50:44.916Z,25.04
2022-08-25T07:52:05.022Z,24.97
2022-08-25T07:53:09.424Z,24.86
2022-08-25T07:54:11.181Z,24.82
2022-08-25T07:55:13.312Z,24.84
2022-08-25T07:56:19.573Z,24.89
2022-08-25T07:57:21.271Z,24.95
2022-08-25T07:58:22.900Z,25.08
2022-08-25T07:59:24.574Z,25.18
2022-08-25T08:00:26.960Z,25.21
2022-08-25T08:01:28.787Z,25.18
2022-08-25T08:02:31.295Z,25.16
2022-08-25T08:03:45.100Z,25.14
2022-08-25T08:04:49.728Z,25.06
2022-08-25T08:05:51.732Z,25.07
2022-08-25T08:06:53.308Z,25.06
2022-08-25T08:07:56.138Z,25.03
2022-08-25T08:08:57.901Z,24.99
2022-08-25T08:10:29.645Z,24.94
2022-08-25T08:11:25.656Z,24.89
2022-08-25T08:12:28.046Z,24.84
2022-08-25T08:13:29.649Z,24.96
2022-08-25T08:14:31.493Z,25.03
2022-08-25T08:15:33.225Z,25.19
2022-08-25T08:16:34.984Z,25.34
2022-08-25T08:17:36.693Z,25.42
2022-08-25T08:18:39.035Z,25.50
2022-08-25T08:19:44.897Z,25.57
2022-08-25T08:20:48.605Z,25.57
2022-08-25T08:21:50.214Z,25.59
2022-08-25T08:22:54.494Z,25.66
2022-08-25T08:23:58.885Z,25.70
2022-08-25T08:25:02.133Z,25.81
2022-08-25T08:26:03.845Z,25.82
2022-08-25T08:27:07.721Z,25.91
2022-08-25T08:28:10.908Z,26.01
2022-08-25T08:29:12.641Z,26.01
2022-08-25T08:30:14.610Z,26.03
2022-08-25T08:31:16.461Z,26.12
2022-08-25T08:32:18.593Z,26.14
2022-08-25T08:33:22.503Z,26.22
2022-08-25T08:34:24.966Z,26.31
2022-08-25T08:35:26.833Z,26.35
2022-08-25T08:36:28.429Z,26.35
2022-08-25T08:37:32.151Z,26.43
2022-08-25T08:38:36.603Z,26.48
2022-08-25T08:39:38.232Z,26.38
2022-08-25T08:40:51.401Z,26.32
2022-08-25T08:42:16.806Z,26.27
2022-08-25T08:43:22.396Z,26.28
2022-08-25T08:44:29.502Z,26.35
2022-08-25T08:45:50.049Z,26.48
2022-08-25T08:47:10.084Z,26.66
2022-08-25T08:48:30.423Z,26.77
2022-08-25T08:49:47.018Z,26.76
2022-08-25T08:51:00.602Z,26.73
2022-08-25T08:52:04.347Z,26.74
2022-08-25T08:53:22.781Z,26.77
2022-08-25T08:54:28.858Z,26.69
2022-08-25T08:55:40.301Z,26.72
2022-08-25T08:56:48.198Z,26.79
2022-08-25T08:57:53.227Z,26.80
2022-08-25T08:59:05.122Z,26.74
2022-08-25T09:00:08.201Z,26.70
2022-08-25T09:01:13.706Z,26.79
2022-08-25T09:02:39.218Z,26.92
2022-08-25T09:03:58.725Z,27.00
2022-08-25T09:05:09.579Z,27.06
2022-08-25T09:06:24.206Z,27.11
2022-08-25T09:07:31.596Z,27.19
2022-08-25T09:08:34.053Z,27.31
2022-08-25T09:09:39.816Z,27.38
2022-08-25T09:10:58.043Z,27.44
2022-08-25T09:12:36.850Z,27.50
2022-08-25T09:14:13.759Z,27.46
2022-08-25T09:15:23.884Z,27.46
2022-08-25T09:16:35.029Z,27.46
2022-08-25T09:17:42.851Z,27.41
2022-08-25T09:19:27.385Z,27.46
2022-08-25T09:20:51.256Z,27.45
2022-08-25T09:22:35.832Z,27.33
2022-08-25T09:23:59.018Z,27.16
2022-08-25T09:25:39.712Z,27.08
2022-08-25T09:27:01.917Z,26.99
2022-08-25T09:28:03.467Z,27.02
2022-08-25T09:29:16.741Z,27.07
2022-08-25T09:30:21.052Z,27.18
2022-08-25T09:31:32.551Z,27.28
2022-08-25T09:32:39.429Z,27.26
2022-08-25T09:33:41.735Z,27.25
2022-08-25T09:34:44.827Z,27.10
2022-08-25T09:35:47.788Z,27.05
2022-08-25T09:36:51.894Z,27.08
2022-08-25T09:38:01.314Z,27.10
2022-08-25T09:39:04.194Z,27.10
2022-08-25T09:40:06.415Z,27.02
2022-08-25T09:41:08.908Z,27.01
2022-08-25T09:42:10.537Z,26.94
2022-08-25T09:43:23.140Z,26.98
2022-08-25T09:44:32.329Z,26.99
2022-08-25T09:45:43.666Z,26.93
2022-08-25T09:47:13.458Z,26.79
2022-08-25T09:48:26.349Z,26.73
2022-08-25T09:49:37.375Z,26.67
2022-08-25T09:50:41.795Z,26.68
2022-08-25T09:51:48.410Z,26.57
2022-08-25T09:52:54.403Z,26.55
2022-08-25T09:54:19.324Z,26.56
2022-08-25T09:55:27.360Z,26.59
2022-08-25T09:56:32.014Z,26.59
2022-08-25T09:57:43.954Z,26.58
2022-08-25T09:58:45.644Z,26.60
2022-08-25T09:59:57.364Z,26.65
2022-08-25T10:01:11.443Z,26.73
2022-08-25T10:02:29.687Z,26.71
2022-08-25T10:03:31.659Z,26.65
2022-08-25T10:04:40.370Z,26.65
2022-08-25T10:06:01.551Z,26.57
2022-08-25T10:07:24.925Z,26.58
2022-08-25T10:08:34.889Z,26.60
2022-08-25T10:09:43.398Z,26.69
2022-08-25T10:10:52.455Z,26.78
2022-08-25T10:11:57.596Z,26.88
2022-08-25T10:13:00.717Z,27.04
2022-08-25T10:14:08.541Z,27.20
2022-08-25T10:15:30.704Z,27.39
2022-08-25T10:16:35.654Z,27.56
2022-08-25T10:17:37.888Z,27.70
2022-08-25T10:18:40.846Z,27.85
2022-08-25T10:19:44.529Z,27.84
2022-08-25T10:21:01.899Z,27.76
2022-08-25T10:22:06.491Z,27.67
2022-08-25T10:23:14.217Z,27.57
2022-08-25T10:24:16.236Z,27.54
2022-08-25T10:25:59.484Z,27.66
2022-08-25T10:27:31.858Z,27.87
2022-08-25T10:28:46.958Z,27.94
2022-08-25T10:30:24.040Z,27.96
2022-08-25T10:31:36.893Z,27.96
2022-08-25T10:33:01.823Z,27.88
2022-08-25T10:34:35.931Z,27.98
2022-08-25T10:35:56.141Z,28.09
2022-08-25T10:37:42.250Z,28.33
2022-08-25T10:38:54.630Z,28.43
2022-08-25T10:40:14.251Z,28.46
2022-08-25T10:41:24.051Z,28.58
2022-08-25T10:42:34.785Z,28.67
2022-08-25T10:43:48.986Z,28.68
2022-08-25T10:45:03.473Z,28.58
2022-08-25T10:46:13.951Z,28.54
2022-08-25T10:47:34.293Z,28.50
2022-08-25T10:49:14.753Z,28.45
2022-08-25T10:50:41.167Z,28.50
2022-08-25T10:52:01.187Z,28.67
2022-08-25T10:53:14.974Z,28.80
2022-08-25T10:54:42.650Z,28.92
2022-08-25T10:55:55.440Z,28.99
2022-08-25T10:57:25.024Z,29.13
2022-08-25T10:58:44.874Z,29.25
2022-08-25T11:00:05.474Z,29.25
2022-08-25T11:01:44.069Z,29.23
2022-08-25T11:03:12.455Z,29.19
2022-08-25T11:04:37.348Z,29.15
2022-08-25T11:06:07.198Z,29.01
2022-08-25T11:07:31.194Z,28.90
2022-08-25T11:09:00.573Z,28.71
2022-08-25T11:10:27.037Z,28.57
2022-08-25T11:11:58.629Z,28.52
2022-08-25T11:13:07.012Z,28.38
2022-08-25T11:14:21.156Z,28.36
2022-08-25T11:15:28.726Z,28.39
2022-08-25T11:16:43.615Z,28.51
2022-08-25T11:18:14.770Z,28.68
2022-08-25T11:19:42.911Z,28.75
2022-08-25T11:21:09.983Z,28.82
2022-08-25T11:22:40.344Z,28.62
2022-08-25T11:23:49.995Z,28.70
2022-08-25T11:25:02.258Z,28.84
2022-08-25T11:26:14.955Z,28.99
2022-08-25T11:27:24.484Z,29.07
2022-08-25T11:28:50.959Z,29.10
2022-08-25T11:30:13.716Z,29.17
2022-08-25T11:31:17.402Z,29.17
2022-08-25T11:32:21.247Z,29.21
2022-08-25T11:33:25.182Z,29.25
2022-08-25T11:34:31.685Z,29.33
2022-08-25T11:35:46.766Z,29.38
2022-08-25T11:36:54.454Z,29.48
2022-08-25T11:38:22.981Z,29.56
2022-08-25T11:39:57.497Z,29.64
2022-08-25T11:41:37.547Z,29.71
2022-08-25T11:43:00.855Z,29.73
2022-08-25T11:44:27.413Z,29.84
2022-08-25T11:46:00.729Z,29.85
2022-08-25T11:47:32.244Z,29.78
2022-08-25T11:49:11.631Z,29.70
2022-08-25T11:50:54.655Z,29.66
2022-08-25T11:52:02.703Z,29.75
2022-08-25T11:53:34.298Z,29.88
2022-08-25T11:54:42.984Z,29.71
2022-08-25T11:55:51.472Z,29.76
2022-08-25T11:57:01.819Z,29.84
2022-08-25T11:58:27.975Z,30.01
2022-08-25T11:59:50.484Z,30.02
2022-08-25T12:00:52.474Z,29.89
2022-08-25T12:01:54.014Z,29.83
2022-08-25T12:02:59.614Z,29.87
2022-08-25T12:04:33.565Z,29.79
2022-08-25T12:05:35.331Z,29.75
2022-08-25T12:07:07.033Z,29.67
2022-08-25T12:08:08.923Z,29.76
2022-08-25T12:09:10.949Z,29.81
2022-08-25T12:10:24.437Z,29.94
2022-08-25T12:11:38.266Z,29.90
2022-08-25T12:12:43.048Z,29.83
2022-08-25T12:13:47.659Z,29.71
2022-08-25T12:14:51.599Z,29.70
2022-08-25T12:15:53.123Z,29.70
2022-08-25T12:16:54.915Z,29.69
2022-08-25T12:18:16.506Z,29.61
2022-08-25T12:19:29.516Z,29.65
2022-08-25T12:20:53.159Z,29.75
2022-08-25T12:22:03.213Z,29.80
2022-08-25T12:23:05.389Z,29.84
2022-08-25T12:24:13.715Z,29.89
2022-08-25T12:25:38.213Z,29.96
2022-08-25T12:26:52.492Z,30.07
2022-08-25T12:28:27.125Z,30.15
2022-08-25T12:29:47.160Z,30.00
2022-08-25T12:30:57.317Z,29.91
2022-08-25T12:32:21.224Z,29.92
2022-08-25T12:33:41.136Z,30.02
2022-08-25T12:34:49.280Z,30.10
2022-08-25T12:35:59.864Z,30.23
2022-08-25T12:37:13.102Z,30.14
2022-08-25T12:38:18.154Z,30.11
2022-08-25T12:39:24.591Z,30.04
2022-08-25T12:40:36.724Z,30.02
2022-08-25T12:41:53.432Z,30.06
2022-08-25T12:43:11.588Z,30.12
2022-08-25T12:44:35.259Z,30.20
2022-08-25T12:45:43.714Z,30.18
2022-08-25T12:46:45.419Z,30.20
2022-08-25T12:47:52.249Z,30.25
2022-08-25T12:48:58.549Z,30.21
2022-08-25T12:50:37.833Z,30.14
2022-08-25T12:51:53.753Z,29.98
2022-08-25T12:53:14.062Z,29.90
2022-08-25T12:54:43.408Z,29.83
2022-08-25T12:55:56.329Z,29.77
2022-08-25T12:57:00.899Z,29.71
2022-08-25T12:58:04.862Z,29.66
2022-08-25T12:59:15.741Z,29.67
2022-08-25T13:01:55.981Z,29.80
2022-08-25T13:03:28.586Z,29.96
2022-08-25T13:04:55.046Z,29.98
2022-08-25T13:06:18.326Z,30.11
2022-08-25T13:07:36.833Z,30.12
2022-08-25T13:09:08.264Z,30.19
2022-08-25T13:10:18.967Z,30.26
2022-08-25T13:11:29.538Z,30.18
2022-08-25T13:12:40.879Z,30.09
2022-08-25T13:14:05.063Z,30.02
2022-08-25T13:15:14.064Z,29.77
2022-08-25T13:16:25.596Z,29.68
2022-08-25T13:17:34.746Z,29.69
2022-08-25T13:18:38.634Z,29.79
2022-08-25T13:19:41.438Z,29.90
2022-08-25T13:20:44.102Z,29.94
2022-08-25T13:21:45.950Z,29.97
2022-08-25T13:22:56.701Z,30.07
2022-08-25T13:24:04.700Z,30.04
2022-08-25T13:25:14.379Z,29.98
2022-08-25T13:26:22.043Z,29.96
2022-08-25T13:27:28.053Z,30.01
2022-08-25T13:28:40.662Z,30.00
2022-08-25T13:29:54.075Z,29.94
2022-08-25T13:30:58.595Z,29.93
2022-08-25T13:32:14.374Z,29.80
2022-08-25T13:33:22.093Z,29.79
2022-08-25T13:34:34.939Z,29.81
2022-08-25T13:35:36.858Z,29.78
2022-08-25T13:36:51.883Z,29.76
2022-08-25T13:38:12.830Z,29.71
2022-08-25T13:39:38.984Z,29.71
2022-08-25T13:40:43.178Z,29.73
2022-08-25T13:41:48.575Z,29.80
2022-08-25T13:43:01.219Z,29.82
2022-08-25T13:44:04.500Z,29.86
2022-08-25T13:45:07.172Z,29.94
2022-08-25T13:46:09.072Z,29.85
2022-08-25T13:47:14.153Z,29.80
2022-08-25T13:48:49.611Z,29.81
2022-08-25T13:49:51.556Z,29.93
2022-08-25T13:51:17.370Z,29.85
2022-08-25T13:52:29.435Z,29.85
2022-08-25T13:53:31.737Z,29.93
2022-08-25T13:54:41.097Z,29.98
2022-08-25T13:55:52.839Z,30.01
2022-08-25T13:57:05.278Z,30.06
2022-08-25T13:58:14.827Z,30.08
2022-08-25T13:59:30.359Z,30.09
2022-08-25T14:00:45.409Z,30.11
2022-08-25T14:01:49.931Z,30.09
2022-08-25T14:02:54.339Z,29.97
2022-08-25T14:04:17.774Z,29.90
2022-08-25T14:06:03.841Z,29.89
2022-08-25T14:07:06.716Z,29.86
2022-08-25T14:08:32.924Z,29.86
2022-08-25T14:09:57.541Z,29.88
2022-08-25T14:11:29.561Z,29.81
2022-08-25T14:12:45.959Z,29.83
2022-08-25T14:13:58.926Z,29.82
2022-08-25T14:15:11.555Z,29.86
2022-08-25T14:16:22.504Z,29.89
2022-08-25T14:17:39.265Z,29.98
2022-08-25T14:18:52.364Z,30.00
2022-08-25T14:19:54.062Z,30.04
2022-08-25T14:20:57.535Z,30.05
2022-08-25T14:21:59.674Z,30.00
2022-08-25T14:23:09.787Z,30.01
2022-08-25T14:24:17.004Z,30.00
2022-08-25T14:25:18.667Z,30.02
2022-08-25T14:26:20.637Z,30.09
2022-08-25T14:27:22.363Z,30.10
2022-08-25T14:28:26.991Z,30.07
2022-08-25T14:29:29.793Z,30.12